createdAt,value
2022-09-15T00:01:02.633Z,79.36
2022-09-15T00:03:29.237Z,79.43
2022-09-15T00:05:56.171Z,79.76
2022-09-15T00:08:22.997Z,79.23
2022-09-15T00:10:58.451Z,79.83
2022-09-15T00:13:25.854Z,80.00
2022-09-15T00:15:52.991Z,80.02
2022-09-15T00:18:19.960Z,80.21
2022-09-15T00:20:46.691Z,80.50
2022-09-15T00:23:14.814Z,80.53
2022-09-15T00:25:45.776Z,80.14
2022-09-15T00:28:13.978Z,80.43
2022-09-15T00:30:42.673Z,80.71
2022-09-15T00:33:09.772Z,80.78
2022-09-15T00:35:38.925Z,81.14
2022-09-15T00:38:05.872Z,81.50
2022-09-15T00:40:32.335Z,81.53
2022-09-15T00:42:58.846Z,81.62
2022-09-15T00:45:26.023Z,81.57
2022-09-15T00:47:52.716Z,81.75
2022-09-15T00:50:20.736Z,81.77
2022-09-15T00:52:56.860Z,81.97
2022-09-15T00:55:32.384Z,82.43
2022-09-15T00:58:10.679Z,82.21
2022-09-15T01:00:42.101Z,82.39
2022-09-15T01:03:08.687Z,82.39
2022-09-15T01:05:48.426Z,82.65
2022-09-15T01:08:21.626Z,82.54
2022-09-15T01:10:48.125Z,82.66
2022-09-15T01:13:15.077Z,82.67
2022-09-15T01:16:09.853Z,82.68
2022-09-15T01:19:01.370Z,82.44
2022-09-15T01:21:43.045Z,82.33
2022-09-15T01:24:34.368Z,82.77
2022-09-15T01:27:37.670Z,82.87
2022-09-15T01:30:09.498Z,83.48
2022-09-15T01:33:06.933Z,83.53
2022-09-15T01:35:33.491Z,83.42
2022-09-15T01:38:18.808Z,83.37
2022-09-15T01:40:52.961Z,83.38
2022-09-15T01:43:22.313Z,83.44
2022-09-15T01:45:51.247Z,83.50
2022-09-15T01:48:22.309Z,83.83
2022-09-15T01:50:56.103Z,83.79
2022-09-15T01:53:24.062Z,83.31
2022-09-15T01:55:56.389Z,83.07
2022-09-15T01:58:23.293Z,83.78
2022-09-15T02:00:57.265Z,83.87
2022-09-15T02:03:35.109Z,83.84
2022-09-15T02:06:08.811Z,84.30
2022-09-15T02:08:49.873Z,83.82
2022-09-15T02:11:19.627Z,84.29
2022-09-15T02:13:52.193Z,84.38
2022-09-15T02:16:22.458Z,84.25
2022-09-15T02:18:58.090Z,84.32
2022-09-15T02:21:37.273Z,84.43
2022-09-15T02:24:13.259Z,84.65
2022-09-15T02:26:42.111Z,84.32
2022-09-15T02:29:13.893Z,84.14
2022-09-15T02:31:42.569Z,84.37
2022-09-15T02:34:16.112Z,84.49
2022-09-15T02:36:43.041Z,85.05
2022-09-15T02:39:15.053Z,85.12
2022-09-15T02:41:41.941Z,85.34
2022-09-15T02:44:09.981Z,85.13
2022-09-15T02:46:36.826Z,85.47
2022-09-15T02:49:03.610Z,85.38
2022-09-15T02:51:31.027Z,85.62
2022-09-15T02:53:57.507Z,85.22
2022-09-15T02:56:23.948Z,85.23
2022-09-15T02:58:50.437Z,85.01
2022-09-15T03:01:17.483Z,84.88
2022-09-15T03:03:45.699Z,85.17
2022-09-15T03:06:21.019Z,84.48
2022-09-15T03:08:50.914Z,85.02
2022-09-15T03:11:19.346Z,85.07
2022-09-15T03:13:46.832Z,85.33
2022-09-15T03:16:15.450Z,85.33
2022-09-15T03:18:43.089Z,85.29
2022-09-15T03:21:13.341Z,85.07
2022-09-15T03:23:40.942Z,85.21
2022-09-15T03:26:09.080Z,85.26
2022-09-15T03:28:36.147Z,85.02
2022-09-15T03:31:02.873Z,85.20
2022-09-15T03:33:29.923Z,85.18
2022-09-15T03:35:57.020Z,84.19
2022-09-15T03:38:24.020Z,84.95
2022-09-15T03:41:04.501Z,85.21
2022-09-15T03:43:32.261Z,84.94
2022-09-15T03:45:59.831Z,85.32
2022-09-15T03:48:27.572Z,85.41
2022-09-15T03:50:54.133Z,85.49
2022-09-15T03:53:20.722Z,85.34
2022-09-15T03:55:48.890Z,85.53
2022-09-15T03:58:17.445Z,85.63
2022-09-15T04:00:45.765Z,85.75
2022-09-15T04:03:12.752Z,85.56
2022-09-15T04:05:39.860Z,85.63
2022-09-15T04:08:06.569Z,85.34
2022-09-15T04:10:33.378Z,85.11
2022-09-15T04:12:59.948Z,84.43
2022-09-15T04:15:26.444Z,85.01
2022-09-15T04:17:52.864Z,84.94
2022-09-15T04:20:19.348Z,85.08
2022-09-15T04:22:45.808Z,84.88
2022-09-15T04:25:12.298Z,84.99
2022-09-15T04:27:39.142Z,84.95
2022-09-15T04:30:08.612Z,84.71
2022-09-15T04:32:37.867Z,84.48
2022-09-15T04:35:04.872Z,84.77
2022-09-15T04:37:32.239Z,84.82
2022-09-15T04:39:59.115Z,84.73
2022-09-15T04:42:25.924Z,84.49
2022-09-15T04:44:52.372Z,84.27
2022-09-15T04:47:19.288Z,84.14
2022-09-15T04:49:46.542Z,84.03
2022-09-15T04:52:13.028Z,83.61
2022-09-15T04:54:39.536Z,84.14
2022-09-15T04:57:06.397Z,83.14
2022-09-15T04:59:32.929Z,83.71
2022-09-15T05:01:59.564Z,83.78
2022-09-15T05:04:26.202Z,83.22
2022-09-15T05:06:52.696Z,83.48
2022-09-15T05:09:19.224Z,83.04
2022-09-15T05:11:45.673Z,82.42
2022-09-15T05:14:12.282Z,82.64
2022-09-15T05:16:40.258Z,82.22
2022-09-15T05:19:06.810Z,82.37
2022-09-15T05:21:33.839Z,82.61
2022-09-15T05:24:00.472Z,82.67
2022-09-15T05:26:28.981Z,82.54
2022-09-15T05:28:57.174Z,82.63
2022-09-15T05:31:30.936Z,82.13
2022-09-15T05:34:00.127Z,81.79
2022-09-15T05:36:26.604Z,82.14
2022-09-15T05:38:53.997Z,81.79
2022-09-15T05:41:20.846Z,81.71
2022-09-15T05:43:48.442Z,81.44
2022-09-15T05:46:15.994Z,81.15
2022-09-15T05:48:42.718Z,80.10
2022-09-15T05:51:09.403Z,80.14
2022-09-15T05:53:36.899Z,79.70
2022-09-15T05:56:06.699Z,79.26
2022-09-15T05:58:33.540Z,79.45
2022-09-15T06:01:08.681Z,78.62
2022-09-15T06:03:35.921Z,78.38
2022-09-15T06:06:04.752Z,78.18
2022-09-15T06:08:33.711Z,78.25
2022-09-15T06:11:15.638Z,78.49
2022-09-15T06:13:43.093Z,78.88
2022-09-15T06:16:13.274Z,78.26
2022-09-15T06:18:41.035Z,78.46
2022-09-15T06:21:13.167Z,78.07
2022-09-15T06:23:40.485Z,78.03
2022-09-15T06:26:08.384Z,78.32
2022-09-15T06:28:35.424Z,77.49
2022-09-15T06:31:02.037Z,77.90
2022-09-15T06:33:28.493Z,77.80
2022-09-15T06:35:55.007Z,77.68
2022-09-15T06:38:21.569Z,77.29
2022-09-15T06:41:00.581Z,77.31
2022-09-15T06:43:27.134Z,77.87
2022-09-15T06:45:53.667Z,76.94
2022-09-15T06:48:24.786Z,76.10
2022-09-15T06:50:55.279Z,76.98
2022-09-15T06:53:22.256Z,77.07
2022-09-15T06:55:48.798Z,76.94
2022-09-15T06:58:15.698Z,76.10
2022-09-15T07:00:42.531Z,76.00
2022-09-15T07:03:09.190Z,75.89
2022-09-15T07:05:35.828Z,74.12
2022-09-15T07:08:02.779Z,72.68
2022-09-15T07:10:29.691Z,72.94
2022-09-15T07:12:56.484Z,72.46
2022-09-15T07:15:24.924Z,72.02
2022-09-15T07:17:51.371Z,72.28
2022-09-15T07:20:17.856Z,71.69
2022-09-15T07:22:44.282Z,72.28
2022-09-15T07:25:10.774Z,72.98
2022-09-15T07:27:37.187Z,73.41
2022-09-15T07:30:08.474Z,74.25
2022-09-15T07:32:34.987Z,74.46
2022-09-15T07:35:02.318Z,74.04
2022-09-15T07:37:28.880Z,74.26
2022-09-15T07:39:55.429Z,74.23
2022-09-15T07:42:21.956Z,74.08
2022-09-15T07:44:48.400Z,73.15
2022-09-15T07:47:14.817Z,72.62
2022-09-15T07:49:42.149Z,72.46
2022-09-15T07:52:08.774Z,71.40
2022-09-15T07:54:35.251Z,71.50
2022-09-15T07:57:01.951Z,70.34
2022-09-15T07:59:28.535Z,70.42
2022-09-15T08:01:55.225Z,70.66
2022-09-15T08:04:21.826Z,69.81
2022-09-15T08:06:48.274Z,69.60
2022-09-15T08:09:17.425Z,69.46
2022-09-15T08:11:44.386Z,69.61
2022-09-15T08:14:11.024Z,69.40
2022-09-15T08:16:38.602Z,68.99
2022-09-15T08:19:05.382Z,69.80
2022-09-15T08:21:31.848Z,69.72
2022-09-15T08:24:01.219Z,68.47
2022-09-15T08:26:29.394Z,66.74
2022-09-15T08:28:56.402Z,66.66
2022-09-15T08:31:24.441Z,66.45
2022-09-15T08:33:54.052Z,66.14
2022-09-15T08:36:21.239Z,66.12
2022-09-15T08:38:47.921Z,67.17
2022-09-15T08:41:21.404Z,65.84
2022-09-15T08:43:59.184Z,65.12
2022-09-15T08:46:34.919Z,64.32
2022-09-15T08:49:10.491Z,64.79
2022-09-15T08:51:44.663Z,63.39
2022-09-15T08:54:18.757Z,64.28
2022-09-15T08:56:45.852Z,65.31
2022-09-15T08:59:15.409Z,64.53
2022-09-15T09:01:48.027Z,64.22
2022-09-15T09:04:32.797Z,64.50
2022-09-15T09:07:04.727Z,65.09
2022-09-15T09:09:52.858Z,65.02
2022-09-15T09:12:29.323Z,64.00
2022-09-15T09:15:32.917Z,65.12
2022-09-15T09:18:21.200Z,65.34
2022-09-15T09:20:56.681Z,64.91
2022-09-15T09:23:28.319Z,65.32
2022-09-15T09:25:57.325Z,65.01
2022-09-15T09:28:36.240Z,65.89
2022-09-15T09:31:07.987Z,65.45
2022-09-15T09:33:47.365Z,65.25
2022-09-15T09:36:14.755Z,66.65
2022-09-15T09:38:44.471Z,67.17
2022-09-15T09:41:19.629Z,67.13
2022-09-15T09:43:49.010Z,68.52
2022-09-15T09:46:18.142Z,67.93
2022-09-15T09:49:03.580Z,68.20
2022-09-15T09:51:39.878Z,67.69
2022-09-15T09:54:16.981Z,67.90
2022-09-15T09:56:45.850Z,66.72
2022-09-15T09:59:42.780Z,65.92
2022-09-15T10:02:12.198Z,65.84
2022-09-15T10:04:40.940Z,64.11
2022-09-15T10:07:08.810Z,64.39
2022-09-15T10:09:37.050Z,64.13
2022-09-15T10:12:05.853Z,64.18
2022-09-15T10:14:36.670Z,64.09
2022-09-15T10:17:05.842Z,63.16
2022-09-15T10:19:36.624Z,63.95
2022-09-15T10:22:04.690Z,63.21
2022-09-15T10:24:35.478Z,62.45
2022-09-15T10:27:28.607Z,64.83
2022-09-15T10:29:56.068Z,65.73
2022-09-15T10:32:25.441Z,65.07
2022-09-15T10:35:04.953Z,64.97
2022-09-15T10:37:55.733Z,64.04
2022-09-15T10:40:39.903Z,63.92
2022-09-15T10:43:40.135Z,65.37
2022-09-15T10:46:19.180Z,62.59
2022-09-15T10:49:16.130Z,62.36
2022-09-15T10:51:58.833Z,61.34
2022-09-15T10:54:54.800Z,62.43
2022-09-15T10:57:33.465Z,58.67
2022-09-15T11:00:09.874Z,57.94
2022-09-15T11:02:58.396Z,57.10
2022-09-15T11:05:34.310Z,57.78
2022-09-15T11:08:24.414Z,59.35
2022-09-15T11:11:17.804Z,58.00
2022-09-15T11:14:18.197Z,57.52
2022-09-15T11:16:49.013Z,56.16
2022-09-15T11:20:09.301Z,56.07
2022-09-15T11:22:46.110Z,55.07
2022-09-15T11:25:23.207Z,55.48
2022-09-15T11:27:57.663Z,55.68
2022-09-15T11:30:29.009Z,54.46
2022-09-15T11:33:19.038Z,54.42
2022-09-15T11:35:53.861Z,53.83
2022-09-15T11:38:53.061Z,53.95
2022-09-15T11:41:34.469Z,52.42
2022-09-15T11:44:03.576Z,52.98
2022-09-15T11:46:51.731Z,52.38
2022-09-15T11:49:23.149Z,51.96
2022-09-15T11:51:56.389Z,52.37
2022-09-15T11:54:37.277Z,52.52
2022-09-15T11:57:04.185Z,52.31
2022-09-15T11:59:42.046Z,51.82
2022-09-15T12:02:34.905Z,52.33
2022-09-15T12:05:08.403Z,50.32
2022-09-15T12:07:47.489Z,48.95
2022-09-15T12:10:19.024Z,45.38
2022-09-15T12:12:46.979Z,46.91
2022-09-15T12:15:27.384Z,43.23
2022-09-15T12:18:06.647Z,43.76
2022-09-15T12:21:03.089Z,42.57
2022-09-15T12:23:34.707Z,43.44
2022-09-15T12:26:20.211Z,42.32
2022-09-15T12:28:46.568Z,42.82
2022-09-15T12:31:25.297Z,44.36
2022-09-15T12:33:51.647Z,45.71
2022-09-15T12:36:37.300Z,47.95
2022-09-15T12:39:20.822Z,49.88
2022-09-15T12:42:06.179Z,52.04
2022-09-15T12:44:37.782Z,52.08
2022-09-15T12:47:07.530Z,53.77
2022-09-15T12:49:43.687Z,55.11
2022-09-15T12:52:11.898Z,55.30
2022-09-15T12:54:41.988Z,55.53
2022-09-15T12:57:24.175Z,54.92
2022-09-15T13:00:16.872Z,55.51
2022-09-15T13:02:51.453Z,57.89
2022-09-15T13:05:42.922Z,57.54
2022-09-15T13:08:12.606Z,58.14
2022-09-15T13:10:43.179Z,57.41
2022-09-15T13:13:20.298Z,57.79
2022-09-15T13:15:50.571Z,57.66
2022-09-15T13:18:19.593Z,57.93
2022-09-15T13:20:54.716Z,56.34
2022-09-15T13:23:25.643Z,56.07
2022-09-15T13:25:56.450Z,56.17
2022-09-15T13:28:24.916Z,54.86
2022-09-15T13:31:18.031Z,55.51
2022-09-15T13:40:14.472Z,52.83
2022-09-15T13:43:04.945Z,55.30
2022-09-15T13:46:04.093Z,52.08
2022-09-15T13:49:01.494Z,50.49
2022-09-15T13:51:30.728Z,49.04
2022-09-15T13:54:05.974Z,50.41
2022-09-15T13:56:39.928Z,50.02
2022-09-15T13:59:14.135Z,50.66
2022-09-15T14:01:42.744Z,50.53
2022-09-15T14:04:16.776Z,51.07
2022-09-15T14:06:48.055Z,52.08
2022-09-15T14:09:22.867Z,51.58
2022-09-15T14:11:55.423Z,52.23
2022-09-15T14:14:28.121Z,54.03
2022-09-15T14:16:56.445Z,55.67
2022-09-15T14:19:36.329Z,57.19
2022-09-15T14:22:17.797Z,56.87
2022-09-15T14:24:44.564Z,56.27
2022-09-15T14:27:12.665Z,55.08
2022-09-15T14:29:40.930Z,54.19
2022-09-15T14:32:13.558Z,54.50
2022-09-15T14:34:42.048Z,52.93
2022-09-15T14:37:19.574Z,52.51
2022-09-15T14:39:56.947Z,52.76
2022-09-15T14:42:30.723Z,52.16
2022-09-15T14:48:02.764Z,53.39
2022-09-15T14:50:33.294Z,52.77
2022-09-15T14:53:23.560Z,52.61
2022-09-15T14:56:01.309Z,52.31
2022-09-15T14:59:08.837Z,52.22
2022-09-15T15:01:37.705Z,53.30
2022-09-15T15:04:34.583Z,53.19
2022-09-15T15:07:07.731Z,53.17
2022-09-15T15:09:40.312Z,54.96
2022-09-15T15:12:17.374Z,54.75
2022-09-15T15:14:44.206Z,54.98
2022-09-15T15:17:26.876Z,55.25
2022-09-15T15:20:05.750Z,55.57
2022-09-15T15:22:32.530Z,55.88
2022-09-15T15:24:59.933Z,56.49
2022-09-15T15:27:32.466Z,56.19
2022-09-15T15:30:37.047Z,56.93
2022-09-15T15:33:19.874Z,57.62
2022-09-15T15:35:47.129Z,57.79
2022-09-15T15:38:19.444Z,57.32
2022-09-15T15:40:46.917Z,57.27
2022-09-15T15:43:19.577Z,57.29
2022-09-15T15:46:00.873Z,57.92
2022-09-15T15:48:30.087Z,57.54
2022-09-15T15:50:59.341Z,58.74
2022-09-15T15:53:26.867Z,58.90
2022-09-15T15:55:55.110Z,60.04
2022-09-15T15:58:22.560Z,60.22
2022-09-15T16:00:53.800Z,60.75
2022-09-15T16:03:21.136Z,57.83
2022-09-15T16:05:50.777Z,58.01
2022-09-15T16:08:31.551Z,57.66
2022-09-15T16:11:00.577Z,57.91
2022-09-15T16:13:27.525Z,58.96
2022-09-15T16:15:56.697Z,60.38
2022-09-15T16:18:23.551Z,61.33
2022-09-15T16:20:50.194Z,61.08
2022-09-15T16:23:19.496Z,61.19
2022-09-15T16:25:54.833Z,61.19
2022-09-15T16:28:21.671Z,60.93
2022-09-15T16:30:48.191Z,60.12
2022-09-15T16:33:16.820Z,59.84
2022-09-15T16:35:52.919Z,60.34
2022-09-15T16:38:20.452Z,60.65
2022-09-15T16:40:47.731Z,60.22
2022-09-15T16:43:16.884Z,61.06
2022-09-15T16:45:44.000Z,61.24
2022-09-15T16:48:11.048Z,60.75
2022-09-15T16:50:40.149Z,61.22
2022-09-15T16:53:20.635Z,61.43
2022-09-15T16:55:52.031Z,62.08
2022-09-15T16:58:20.097Z,62.20
2022-09-15T17:00:49.190Z,62.53
2022-09-15T17:03:18.751Z,62.68
2022-09-15T17:05:48.828Z,63.42
2022-09-15T17:08:16.169Z,63.94
2022-09-15T17:10:42.894Z,63.68
2022-09-15T17:13:15.076Z,64.05
2022-09-15T17:15:42.215Z,63.93
2022-09-15T17:18:10.116Z,64.58
2022-09-15T17:20:39.340Z,64.35
2022-09-15T17:23:18.277Z,64.12
2022-09-15T17:25:51.414Z,64.53
2022-09-15T17:28:22.730Z,64.41
2022-09-15T17:30:51.519Z,64.58
2022-09-15T17:33:19.587Z,65.25
2022-09-15T17:35:46.384Z,64.59
2022-09-15T17:38:13.433Z,65.42
2022-09-15T17:40:39.991Z,65.45
2022-09-15T17:43:13.978Z,65.95
2022-09-15T17:45:40.623Z,65.48
2022-09-15T17:48:07.224Z,65.64
2022-09-15T17:50:34.826Z,65.46
2022-09-15T17:53:01.315Z,65.40
2022-09-15T17:55:33.077Z,65.64
2022-09-15T17:58:01.303Z,65.47
2022-09-15T18:00:39.635Z,65.69
2022-09-15T18:03:15.807Z,65.93
2022-09-15T18:05:42.346Z,66.20
2022-09-15T18:08:09.627Z,66.61
2022-09-15T18:10:36.660Z,66.78
2022-09-15T18:13:05.404Z,66.84
2022-09-15T18:15:34.034Z,66.69
2022-09-15T18:18:04.055Z,66.81
2022-09-15T18:20:32.929Z,67.05
2022-09-15T18:23:00.385Z,66.74
2022-09-15T18:25:30.932Z,67.28
2022-09-15T18:27:59.046Z,69.45
2022-09-15T18:30:28.894Z,70.25
2022-09-15T18:32:55.872Z,71.89
2022-09-15T18:35:23.381Z,72.97
2022-09-15T18:37:55.513Z,72.85
2022-09-15T18:40:21.988Z,72.91
2022-09-15T18:42:49.097Z,74.15
2022-09-15T18:45:17.294Z,73.80
2022-09-15T18:47:47.149Z,75.11
2022-09-15T18:50:14.191Z,75.67
2022-09-15T18:52:41.807Z,75.99
2022-09-15T18:55:11.394Z,76.24
2022-09-15T18:57:39.399Z,77.01
2022-09-15T19:00:12.140Z,76.32
2022-09-15T19:02:39.062Z,75.72
2022-09-15T19:05:06.410Z,75.42
2022-09-15T19:07:32.938Z,75.95
2022-09-15T19:10:00.650Z,74.85
2022-09-15T19:12:27.468Z,75.18
2022-09-15T19:14:54.548Z,75.08
2022-09-15T19:17:21.350Z,74.87
2022-09-15T19:19:47.904Z,75.50
2022-09-15T19:22:14.387Z,74.91
2022-09-15T19:24:40.874Z,74.96
2022-09-15T19:27:08.225Z,75.34
2022-09-15T19:29:36.447Z,74.76
2022-09-15T19:32:09.774Z,74.36
2022-09-15T19:34:38.481Z,74.56
2022-09-15T19:37:11.346Z,75.61
2022-09-15T19:39:40.688Z,75.83
2022-09-15T19:42:09.253Z,76.23
2022-09-15T19:44:35.775Z,76.04
2022-09-15T19:47:02.317Z,76.24
2022-09-15T19:49:28.786Z,76.39
2022-09-15T19:51:55.581Z,76.54
2022-09-15T19:54:23.952Z,76.58
2022-09-15T19:56:51.105Z,76.93
2022-09-15T19:59:18.548Z,76.89
2022-09-15T20:01:45.141Z,77.25
2022-09-15T20:04:12.400Z,77.40
2022-09-15T20:06:39.432Z,78.05
2022-09-15T20:09:07.119Z,80.17
2022-09-15T20:11:34.874Z,80.58
2022-09-15T20:14:01.638Z,82.59
2022-09-15T20:16:29.210Z,82.47
2022-09-15T20:18:56.001Z,83.35
2022-09-15T20:21:45.984Z,83.78
2022-09-15T20:24:12.364Z,83.88
2022-09-15T20:26:38.900Z,83.30
2022-09-15T20:29:05.359Z,83.66
2022-09-15T20:31:34.684Z,83.33
2022-09-15T20:34:02.353Z,83.30
2022-09-15T20:36:33.374Z,84.02
2022-09-15T20:39:01.466Z,83.81
2022-09-15T20:41:28.523Z,83.96
2022-09-15T20:43:55.617Z,83.51
2022-09-15T20:46:23.472Z,83.21
2022-09-15T20:48:51.248Z,82.99
2022-09-15T20:51:23.414Z,82.38
2022-09-15T20:53:54.921Z,83.05
2022-09-15T20:56:25.691Z,82.80
2022-09-15T20:58:53.859Z,82.49
2022-09-15T21:01:43.456Z,82.89
2022-09-15T21:04:10.854Z,82.72
2022-09-15T21:06:38.665Z,83.15
2022-09-15T21:09:06.250Z,83.57
2022-09-15T21:11:33.204Z,83.68
2022-09-15T21:13:59.886Z,83.46
2022-09-15T21:16:28.271Z,83.98
2022-09-15T21:18:57.083Z,83.92
2022-09-15T21:21:25.868Z,84.21
2022-09-15T21:23:54.708Z,84.46
2022-09-15T21:26:26.292Z,84.14
2022-09-15T21:28:54.181Z,84.31
2022-09-15T21:31:23.280Z,84.15
2022-09-15T21:33:51.212Z,84.32
2022-09-15T21:36:29.638Z,84.51
2022-09-15T21:38:58.200Z,84.91
2022-09-15T21:41:27.332Z,84.72
2022-09-15T21:43:55.273Z,85.27
2022-09-15T21:46:26.581Z,84.60
2022-09-15T21:48:55.175Z,84.68
2022-09-15T21:51:24.949Z,84.71
2022-09-15T21:53:56.800Z,84.81
2022-09-15T21:56:24.146Z,84.96
2022-09-15T21:58:50.766Z,85.07
2022-09-15T22:01:20.183Z,85.34
2022-09-15T22:03:55.577Z,85.32
2022-09-15T22:06:27.682Z,85.58
2022-09-15T22:08:55.368Z,85.61
2022-09-15T22:11:22.644Z,85.28
2022-09-15T22:13:49.325Z,85.59
2022-09-15T22:16:20.352Z,85.79
2022-09-15T22:18:47.560Z,85.94
2022-09-15T22:21:20.578Z,86.14
2022-09-15T22:23:48.481Z,86.31
2022-09-15T22:26:18.224Z,86.08
2022-09-15T22:28:45.367Z,86.36
2022-09-15T22:31:13.320Z,86.25
2022-09-15T22:33:43.155Z,86.58
2022-09-15T22:36:15.728Z,86.26
2022-09-15T22:38:42.825Z,86.18
2022-09-15T22:41:14.139Z,85.98
2022-09-15T22:43:42.977Z,86.30
2022-09-15T22:46:09.796Z,86.11
2022-09-15T22:48:40.984Z,86.57
2022-09-15T22:51:09.395Z,86.69
2022-09-15T22:53:35.975Z,86.85
2022-09-15T22:56:09.132Z,86.68
2022-09-15T22:58:36.858Z,86.65
2022-09-15T23:01:12.146Z,86.57
2022-09-15T23:03:39.528Z,86.24
2022-09-15T23:06:07.779Z,86.79
2022-09-15T23:08:35.440Z,86.79
2022-09-15T23:11:06.439Z,86.75
2022-09-15T23:13:33.694Z,86.72
2022-09-15T23:16:00.312Z,86.74
2022-09-15T23:18:29.702Z,86.64
2022-09-15T23:21:04.237Z,87.12
2022-09-15T23:23:30.985Z,87.06
2022-09-15T23:25:57.398Z,87.25
2022-09-15T23:28:23.847Z,87.12
2022-09-15T23:30:57.857Z,87.10
2022-09-15T23:33:25.985Z,87.07
2022-09-15T23:35:52.800Z,86.75
2022-09-15T23:38:20.163Z,87.34
2022-09-15T23:40:48.307Z,87.25
2022-09-15T23:43:14.764Z,87.06
2022-09-15T23:45:45.116Z,87.31
2022-09-15T23:48:13.408Z,87.65
2022-09-15T23:50:41.424Z,87.69
2022-09-15T23:53:08.034Z,87.21
2022-09-15T23:55:34.809Z,87.10
2022-09-15T23:58:01.263Z,87.07
